Information Last Ob Photographs Meteogram Network Table Neighbors Monthly Summaries Observation History Wind Roses Custom Wind Roses Data Calendar Download

08 February 2018 Observation History, [DSM] DES MOINES, timezone: America/Chicago

Select Date:
Show MetarsPrevious DayNext Day
Time Wind
(mph)
Vis.
(mi.)
Sky Cond.
(100s ft)
Present Wx Temperature (ºF) Relative
Humidity
Pressure Precipitation (in.)
Air Dwpt Feels Like 6 hour altimeter
(in.)
sea level
(mb)
1 hr 3 hr 6 hr
Max.Min.
11:55 PMENE 135 OVC009
{-SN} % 30.12
KDSM 090555Z AUTO 07011KT 5SM -SN OVC009 M07/M09 A3012 RMK T10701090 MADISHF
11:54 PMENE 135 OVC009
{-SN}20157 21 20 81% 30.121021.30.00010.0001
KDSM 090554Z 07011KT 5SM -SN OVC009 M07/M09 A3012 RMK AO2 SNB29 SLP213 4/005 P0000 60000 T10671094 11061 21067 410441106 58012
11:50 PMNE 155 OVC009
{-SN} % 30.13
KDSM 090550Z AUTO 05013KT 5SM -SN OVC009 M07/M09 A3013 RMK T10701090 MADISHF
11:45 PMNE 134 OVC009
{-SN} % 30.14
KDSM 090545Z AUTO 05011KT 4SM -SN OVC009 M07/M09 A3014 RMK T10701090 MADISHF
11:40 PMNE 134 OVC009
{-SN} % 30.14
KDSM 090540Z AUTO 04011KT 4SM -SN OVC009 M07/M09 A3014 RMK T10701090 MADISHF
11:35 PMNE 155 OVC009
{-SN,BR} % 30.14
KDSM 090535Z AUTO 04013KT 5SM -SN BR OVC009 M07/M09 A3014 RMK T10701090 MADISHF
11:30 PMNE 145 OVC009
{-SN,BR} % 30.14
KDSM 090530Z AUTO 04012KT 5SM -SN BR OVC009 M07/M09 A3014 RMK T10701090 MADISHF
11:25 PMNNE 135 OVC009
{BR} % 30.14
KDSM 090525Z AUTO 03011KT 5SM BR OVC009 M07/M09 A3014 RMK T10701090 MADISHF
11:20 PMNE 135 OVC009
{BR} % 30.14
KDSM 090520Z AUTO 04011KT 5SM BR OVC009 M07/M09 A3014 RMK T10701090 MADISHF
11:15 PMNNE 145 OVC009
{BR} % 30.14
KDSM 090515Z AUTO 03012KT 5SM BR OVC009 M07/M09 A3014 RMK T10701090 MADISHF
11:10 PMNNE 135 OVC009
{BR} % 30.14
KDSM 090510Z AUTO 03011KT 5SM BR OVC009 M07/M09 A3014 RMK T10701090 MADISHF
11:05 PMNE 125 OVC009
{BR} % 30.14
KDSM 090505Z AUTO 04010KT 5SM BR OVC009 M07/M09 A3014 RMK T10701090 MADISHF
11:00 PMNE 126 OVC009
{BR} % 30.14
KDSM 090500Z AUTO 05010KT 6SM BR OVC009 M07/M09 A3014 RMK T10701090 MADISHF
10:55 PMNE 146 OVC009
{BR} % 30.14
KDSM 090455Z AUTO 05012KT 6SM BR OVC009 M07/M09 A3014 RMK T10701090 MADISHF
10:54 PMNE 146 OVC009
{BR}20167 85% 30.141022.10
KDSM 090454Z 04012KT 6SM BR OVC009 M07/M09 A3014 RMK AO2 SLP221 T10671089
10:50 PMNE 126 OVC009
{BR} % 30.15
KDSM 090450Z AUTO 04010KT 6SM BR OVC009 M07/M09 A3015 RMK T10701090 MADISHF
10:45 PMNE 146 BKN009
{BR} % 30.15
KDSM 090445Z AUTO 04012KT 6SM BR BKN009 M07/M09 A3015 RMK T10701090 MADISHF
10:40 PMNE 106 BKN009
BKN120
{BR} % 30.15
KDSM 090440Z AUTO 04009KT 6SM BR BKN009 BKN120 M07/M09 A3015 RMK T10701090 MADISHF
10:35 PMNE 126 BKN009
BKN120
{BR} % 30.15
KDSM 090435Z AUTO 05010KT 6SM BR BKN009 BKN120 M07/M09 A3015 RMK T10701090 MADISHF
10:30 PMENE 107 BKN009
OVC120
% 30.15
KDSM 090430Z AUTO 06009KT 7SM BKN009 OVC120 M06/M09 A3015 RMK T10601090 MADISHF
10:25 PMENE 87 FEW009
BKN120
% 30.15
KDSM 090425Z AUTO 06007KT 7SM FEW009 BKN120 M07/M09 A3015 RMK T10701090 MADISHF
10:20 PMENE 97 BKN120
% 30.15
KDSM 090420Z AUTO 06008KT 7SM BKN120 M07/M09 A3015 RMK T10701090 MADISHF
10:15 PMNE 137 BKN120
% 30.15
KDSM 090415Z AUTO 05011KT 7SM BKN120 M07/M09 A3015 RMK T10701090 MADISHF
10:10 PMENE 97 BKN120
% 30.15
KDSM 090410Z AUTO 06008KT 7SM BKN120 M07/M09 A3015 RMK T10701090 MADISHF
10:05 PMENE 107 BKN120
% 30.15
KDSM 090405Z AUTO 06009KT 7SM BKN120 M07/M09 A3015 RMK T10701090 MADISHF
10:00 PMENE 127 BKN120
% 30.15
KDSM 090400Z AUTO 07010KT 7SM BKN120 M06/M09 A3015 RMK T10601090 MADISHF
9:55 PMENE 107 BKN120
% 30.15
KDSM 090355Z AUTO 06009KT 7SM BKN120 M07/M09 A3015 RMK T10701090 MADISHF
9:54 PMENE 97 SCT009
OVC120
20169 85% 30.151022.60
KDSM 090354Z 07008KT 7SM SCT009 OVC120 M07/M09 A3015 RMK AO2 SLP226 T10671089
9:50 PMENE 126 BKN120
{BR} % 30.15
KDSM 090350Z AUTO 07010KT 6SM BR BKN120 M07/M09 A3015 RMK T10701090 MADISHF
9:45 PMENE 106 BKN120
{BR} % 30.15
KDSM 090345Z AUTO 06009KT 6SM BR BKN120 M07/M09 A3015 RMK T10701090 MADISHF
9:40 PMENE 96 OVC120
{BR} % 30.16
KDSM 090340Z AUTO 07008KT 6SM BR OVC120 M07/M09 A3016 RMK T10701090 MADISHF
9:35 PMENE 76 OVC120
{BR} % 30.16
KDSM 090335Z AUTO 06006KT 6SM BR OVC120 M07/M09 A3016 RMK T10701090 MADISHF
9:30 PMENE 86 OVC120
{BR} % 30.16
KDSM 090330Z AUTO 07007KT 6SM BR OVC120 M07/M09 A3016 RMK T10701090 MADISHF
9:25 PMENE 106 OVC120
{BR} % 30.16
KDSM 090325Z AUTO 07009KT 6SM BR OVC120 M07/M09 A3016 RMK T10701090 MADISHF
9:20 PMENE 86 OVC120
{BR} % 30.16
KDSM 090320Z AUTO 06007KT 6SM BR OVC120 M07/M09 A3016 RMK T10701090 MADISHF
9:15 PMENE 106 OVC120
{BR} % 30.16
KDSM 090315Z AUTO 06009KT 6SM BR OVC120 M07/M09 A3016 RMK T10701090 MADISHF
9:10 PMENE 136 OVC120
{BR} % 30.16
KDSM 090310Z AUTO 06011KT 6SM BR OVC120 M07/M09 A3016 RMK T10701090 MADISHF
9:05 PMENE 96 OVC120
{HZ} % 30.16
KDSM 090305Z AUTO 06008KT 6SM HZ OVC120 M06/M09 A3016 RMK T10601090 MADISHF
9:00 PMENE 86 OVC120
{HZ} % 30.15
KDSM 090300Z AUTO 07007KT 6SM HZ OVC120 M06/M09 A3015 RMK T10601090 MADISHF
8:55 PMENE 86 OVC120
{HZ} % 30.15
KDSM 090255Z AUTO 06007KT 6SM HZ OVC120 M06/M09 A3015 RMK T10601090 MADISHF
8:54 PMENE 96 FEW009
SCT024
OVC120
{HZ}211611 81% 30.151022.60
KDSM 090254Z 06008KT 6SM HZ FEW009 SCT024 OVC120 M06/M09 A3015 RMK AO2 SLP226 T10611089 58021
8:50 PMENE 106 OVC110
{HZ} % 30.16
KDSM 090250Z AUTO 07009KT 6SM HZ OVC110 M06/M09 A3016 RMK T10601090 MADISHF
8:45 PMENE 10G 166 OVC110
{HZ} % 30.16
KDSM 090245Z AUTO 06009G14KT 6SM HZ OVC110 M06/M09 A3016 RMK T10601090 MADISHF
8:40 PMENE 126 OVC110
{HZ} % 30.16
KDSM 090240Z AUTO 07010KT 6SM HZ OVC110 M06/M09 A3016 RMK T10601090 MADISHF
8:35 PMENE 12G 186 OVC110
{BR} % 30.16
KDSM 090235Z AUTO 07010G16KT 6SM BR OVC110 M06/M08 A3016 RMK T10601080 MADISHF
8:30 PMENE 106 OVC110
{BR} % 30.17
KDSM 090230Z AUTO 06009KT 6SM BR OVC110 M06/M08 A3017 RMK T10601080 MADISHF
8:25 PMENE 106 OVC110
{BR} % 30.17
KDSM 090225Z AUTO 07009KT 6SM BR OVC110 M06/M08 A3017 RMK T10601080 MADISHF
8:20 PMENE 126 OVC110
{BR} % 30.17
KDSM 090220Z AUTO 07010KT 6SM BR OVC110 M06/M08 A3017 RMK T10601080 MADISHF
8:15 PMENE 106 OVC110
{BR} % 30.17
KDSM 090215Z AUTO 07009KT 6SM BR OVC110 M06/M08 A3017 RMK T10601080 MADISHF
8:10 PMENE 126 OVC110
{BR} % 30.17
KDSM 090210Z AUTO 07010KT 6SM BR OVC110 M06/M08 A3017 RMK T10601080 MADISHF
8:05 PMENE 126 OVC110
{BR} % 30.17
KDSM 090205Z AUTO 06010KT 6SM BR OVC110 M06/M08 A3017 RMK T10601080 MADISHF
8:00 PMENE 96 OVC120
{BR} % 30.18
KDSM 090200Z AUTO 07008KT 6SM BR OVC120 M06/M08 A3018 RMK T10601080 MADISHF
7:55 PMENE 96 OVC120
{BR} % 30.18
KDSM 090155Z AUTO 06008KT 6SM BR OVC120 M06/M08 A3018 RMK T10601080 MADISHF
7:54 PMENE 96 FEW024
OVC120
{BR}211711 85% 30.181023.50
KDSM 090154Z 07008KT 6SM BR FEW024 OVC120 M06/M08 A3018 RMK AO2 SLP235 T10611083
7:50 PMENE 97 OVC120
% 30.18
KDSM 090150Z AUTO 06008KT 7SM OVC120 M06/M08 A3018 RMK T10601080 MADISHF
7:45 PMENE 107 OVC120
% 30.18
KDSM 090145Z AUTO 07009KT 7SM OVC120 M06/M08 A3018 RMK T10601080 MADISHF
7:40 PMENE 107 OVC120
% 30.18
KDSM 090140Z AUTO 07009KT 7SM OVC120 M06/M08 A3018 RMK T10601080 MADISHF
7:35 PMENE 97 OVC120
% 30.19
KDSM 090135Z AUTO 07008KT 7SM OVC120 M06/M08 A3019 RMK T10601080 MADISHF
7:30 PMENE 107 OVC120
% 30.19
KDSM 090130Z AUTO 07009KT 7SM OVC120 M06/M08 A3019 RMK T10601080 MADISHF
7:25 PMENE 127 OVC120
% 30.19
KDSM 090125Z AUTO 07010KT 7SM OVC120 M06/M08 A3019 RMK T10601080 MADISHF
7:20 PMENE 107 OVC120
% 30.19
KDSM 090120Z AUTO 07009KT 7SM OVC120 M06/M08 A3019 RMK T10601080 MADISHF
7:15 PMENE 97 OVC120
% 30.2
KDSM 090115Z AUTO 06008KT 7SM OVC120 M06/M08 A3020 RMK T10601080 MADISHF
7:10 PMENE 107 OVC120
% 30.19
KDSM 090110Z AUTO 06009KT 7SM OVC120 M06/M08 A3019 RMK T10601080 MADISHF
7:05 PMENE 87 OVC110
% 30.2
KDSM 090105Z AUTO 07007KT 7SM OVC110 M06/M08 A3020 RMK T10601080 MADISHF
7:00 PMENE 107 OVC110
% 30.2
KDSM 090100Z AUTO 06009KT 7SM OVC110 M06/M08 A3020 RMK T10601080 MADISHF
6:55 PMENE 77 OVC110
% 30.2
KDSM 090055Z AUTO 07006KT 7SM OVC110 M06/M08 A3020 RMK T10601080 MADISHF
6:54 PMENE 87 FEW010
FEW028
OVC110
211711 85% 30.21024.20
KDSM 090054Z 07007KT 7SM FEW010 FEW028 OVC110 M06/M08 A3020 RMK AO2 SLP242 T10611083
6:50 PMENE 87 OVC110
% 30.2
KDSM 090050Z AUTO 07007KT 7SM OVC110 M06/M08 A3020 RMK T10601080 MADISHF
6:45 PMENE 97 OVC110
% 30.2
KDSM 090045Z AUTO 06008KT 7SM OVC110 M06/M08 A3020 RMK T10601080 MADISHF
6:40 PMENE 87 OVC110
% 30.2
KDSM 090040Z AUTO 07007KT 7SM OVC110 M06/M08 A3020 RMK T10601080 MADISHF
6:35 PMENE 97 OVC120
% 30.2
KDSM 090035Z AUTO 07008KT 7SM OVC120 M06/M08 A3020 RMK T10601080 MADISHF
6:30 PMENE 107 OVC120
% 30.2
KDSM 090030Z AUTO 07009KT 7SM OVC120 M06/M08 A3020 RMK T10601080 MADISHF
6:25 PMENE 98 BKN120
% 30.2
KDSM 090025Z AUTO 07008KT 8SM BKN120 M06/M08 A3020 RMK T10601080 MADISHF
6:20 PMENE 128 BKN120
% 30.2
KDSM 090020Z AUTO 07010KT 8SM BKN120 M06/M08 A3020 RMK T10601080 MADISHF
6:15 PMENE 88 BKN120
% 30.2
KDSM 090015Z AUTO 07007KT 8SM BKN120 M06/M08 A3020 RMK T10601080 MADISHF
6:10 PMENE 138 BKN120
% 30.2
KDSM 090010Z AUTO 07011KT 8SM BKN120 M06/M09 A3020 RMK T10601090 MADISHF
6:05 PMENE 98 BKN120
% 30.21
KDSM 090005Z AUTO 07008KT 8SM BKN120 M06/M08 A3021 RMK T10601080 MADISHF
6:00 PMENE 108 BKN120
% 30.21
KDSM 090000Z AUTO 07009KT 8SM BKN120 M06/M08 A3021 RMK T10601080 MADISHF
5:55 PMENE 98 BKN120
% 30.22
KDSM 082355Z AUTO 06008KT 8SM BKN120 M06/M08 A3022 RMK T10601080 MADISHF
5:54 PMENE 88 FEW028
OVC120
211711 24 21 85% 30.221024.800.0001
KDSM 082354Z 07007KT 8SM FEW028 OVC120 M06/M08 A3022 RMK AO2 SLP248 4/005 60000 T10611083 11044 21061 56011
5:50 PMENE 98 BKN120
% 30.22
KDSM 082350Z AUTO 06008KT 8SM BKN120 M06/M08 A3022 RMK T10601080 MADISHF
5:45 PMENE 88 BKN120
% 30.22
KDSM 082345Z AUTO 06007KT 8SM BKN120 M06/M09 A3022 RMK T10601090 MADISHF
5:40 PMENE 77 FEW028
BKN120
% 30.22
KDSM 082340Z AUTO 06006KT 7SM FEW028 BKN120 M06/M09 A3022 RMK T10601090 MADISHF
5:35 PME 107 SCT027
BKN120
% 30.22
KDSM 082335Z AUTO 08009KT 7SM SCT027 BKN120 M06/M08 A3022 RMK T10601080 MADISHF
5:30 PMENE 87 SCT027
BKN120
% 30.22
KDSM 082330Z AUTO 06007KT 7SM SCT027 BKN120 M06/M09 A3022 RMK T10601090 MADISHF
5:27 PMENE 97 SCT027
OVC120
221612 78% 30.220
KDSM 082327Z 07008KT 7SM SCT027 OVC120 M06/M09 A3022 RMK AO2 T10561089
5:25 PMENE 97 BKN027
% 30.22
KDSM 082325Z AUTO 06008KT 7SM BKN027 M06/M09 A3022 RMK T10601090 MADISHF
5:20 PMENE 87 BKN027
% 30.22
KDSM 082320Z AUTO 07007KT 7SM BKN027 M06/M09 A3022 RMK T10601090 MADISHF
5:15 PMENE 97 OVC026
% 30.22
KDSM 082315Z AUTO 07008KT 7SM OVC026 M06/M09 A3022 RMK T10601090 MADISHF
5:10 PMENE 98 OVC026
% 30.23
KDSM 082310Z AUTO 07008KT 8SM OVC026 M06/M09 A3023 RMK T10601090 MADISHF
5:05 PMENE 98 OVC025
% 30.23
KDSM 082305Z AUTO 07008KT 8SM OVC025 M06/M09 A3023 RMK T10601090 MADISHF
5:00 PMENE 98 OVC025
% 30.23
KDSM 082300Z AUTO 07008KT 8SM OVC025 M06/M09 A3023 RMK T10601090 MADISHF
4:55 PMENE 98 OVC023
% 30.23
KDSM 082255Z AUTO 07008KT 8SM OVC023 M06/M09 A3023 RMK T10601090 MADISHF
4:54 PMENE 88 OVC023
221613 78% 30.231025.20
KDSM 082254Z 07007KT 8SM OVC023 M06/M09 A3023 RMK AO2 SLP252 T10561089
4:50 PME 88 OVC023
% 30.23
KDSM 082250Z AUTO 09007KT 8SM OVC023 M06/M09 A3023 RMK T10601090 MADISHF
4:45 PME 98 OVC023
% 30.24
KDSM 082245Z AUTO 08008KT 8SM OVC023 M06/M09 A3024 RMK T10601090 MADISHF
4:40 PME 78 OVC022
% 30.24
KDSM 082240Z AUTO 08006KT 8SM OVC022 M06/M09 A3024 RMK T10601090 MADISHF
4:35 PME 88 OVC022
% 30.24
KDSM 082235Z AUTO 09007KT 8SM OVC022 M06/M09 A3024 RMK T10601090 MADISHF
4:30 PME 88 OVC022
% 30.24
KDSM 082230Z AUTO 09007KT 8SM OVC022 M06/M09 A3024 RMK T10601090 MADISHF
4:25 PME 78 OVC022
% 30.24
KDSM 082225Z AUTO 09006KT 8SM OVC022 M06/M09 A3024 RMK T10601090 MADISHF
4:20 PME 88 BKN022
% 30.24
KDSM 082220Z AUTO 08007KT 8SM BKN022 M06/M09 A3024 RMK T10601090 MADISHF
4:17 PME 88 BKN021
OVC130
221613 78% 30.240
KDSM 082217Z 09007KT 8SM BKN021 OVC130 M06/M09 A3024 RMK AO2 T10561089
4:15 PMENE 78 SCT021
% 30.24
KDSM 082215Z AUTO 07006KT 8SM SCT021 M06/M09 A3024 RMK T10601090 MADISHF
4:10 PME 88 SCT021
% 30.24
KDSM 082210Z AUTO 08007KT 8SM SCT021 M06/M09 A3024 RMK T10601090 MADISHF
4:05 PME 77 SCT021
% 30.24
KDSM 082205Z AUTO 08006KT 7SM SCT021 M06/M08 A3024 RMK T10601080 MADISHF
4:00 PME 77 FEW021
% 30.23
KDSM 082200Z AUTO 08006KT 7SM FEW021 M06/M08 A3023 RMK T10601080 MADISHF
3:55 PMENE 77 CLR
% 30.23
KDSM 082155Z AUTO 07006KT 7SM CLR M06/M09 A3023 RMK T10601090 MADISHF
3:54 PMENE 78 FEW045
FEW090
BKN130
OVC250
221613 78% 30.231025.40.0001
KDSM 082154Z 07006KT 8SM FEW045 FEW090 BKN130 OVC250 M06/M09 A3023 RMK AO2 SNE19 SLP254 P0000 T10561089
3:50 PMENE 97 CLR
% 30.23
KDSM 082150Z AUTO 06008KT 7SM CLR M06/M09 A3023 RMK T10601090 MADISHF
3:45 PMENE 87 FEW100
% 30.23
KDSM 082145Z AUTO 06007KT 7SM FEW100 M06/M09 A3023 RMK T10601090 MADISHF
3:40 PMENE 107 FEW100
% 30.23
KDSM 082140Z AUTO 06009KT 7SM FEW100 M06/M09 A3023 RMK T10601090 MADISHF
3:35 PMENE 87 FEW100
% 30.23
KDSM 082135Z AUTO 06007KT 7SM FEW100 M06/M09 A3023 RMK T10601090 MADISHF
3:30 PMENE 107 SCT095
% 30.23
KDSM 082130Z AUTO 06009KT 7SM SCT095 M06/M08 A3023 RMK T10601080 MADISHF
3:25 PMENE 97 BKN100
% 30.23
KDSM 082125Z AUTO 06008KT 7SM BKN100 M06/M08 A3023 RMK T10601080 MADISHF
3:20 PMENE 87 FEW039
BKN095
% 30.24
KDSM 082120Z AUTO 06007KT 7SM FEW039 BKN095 M06/M08 A3024 RMK T10601080 MADISHF
3:15 PME 96 SCT039
BKN095
{-SN} % 30.24
KDSM 082115Z AUTO 08008KT 6SM -SN SCT039 BKN095 M06/M08 A3024 RMK T10601080 MADISHF
3:10 PMNE 96 SCT039
BKN095
{-SN} % 30.24
KDSM 082110Z AUTO 05008KT 6SM -SN SCT039 BKN095 M06/M09 A3024 RMK T10601090 MADISHF
3:05 PMNE 96 SCT039
BKN095
{-SN} % 30.25
KDSM 082105Z AUTO 05008KT 6SM -SN SCT039 BKN095 M06/M09 A3025 RMK T10601090 MADISHF
3:00 PMNE 96 SCT039
BKN070
BKN095
{-SN} % 30.25
KDSM 082100Z AUTO 04008KT 6SM -SN SCT039 BKN070 BKN095 M06/M08 A3025 RMK T10601080 MADISHF
2:55 PMNE 106 FEW019
BKN039
BKN070
{-SN} % 30.25
KDSM 082055Z AUTO 05009KT 6SM -SN FEW019 BKN039 BKN070 M06/M09 A3025 RMK T10601090 MADISHF
2:54 PMNE 106 FEW019
BKN042
BKN070
OVC130
{-SN}221711 81% 30.251025.90.00010.0001
KDSM 082054Z 05009KT 6SM -SN FEW019 BKN042 BKN070 OVC130 M06/M08 A3025 RMK AO2 SLP259 P0000 60000 T10561083 56022
2:50 PMENE 96 FEW019
BKN042
BKN070
{-SN} % 30.25
KDSM 082050Z AUTO 06008KT 6SM -SN FEW019 BKN042 BKN070 M06/M08 A3025 RMK T10601080 MADISHF
2:45 PMENE 75 FEW019
BKN028
OVC070
{HZ} % 30.26
KDSM 082045Z AUTO 06006KT 5SM HZ FEW019 BKN028 OVC070 M06/M09 A3026 RMK T10601090 MADISHF
2:40 PME 105 FEW019
BKN028
OVC070
{HZ} % 30.25
KDSM 082040Z AUTO 08009KT 5SM HZ FEW019 BKN028 OVC070 M06/M09 A3025 RMK T10601090 MADISHF
2:35 PMENE 94 BKN019
BKN028
OVC070
{-SN} % 30.25
KDSM 082035Z AUTO 07008KT 4SM -SN BKN019 BKN028 OVC070 M06/M08 A3025 RMK T10601080 MADISHF
2:30 PMENE 83 BKN019
BKN026
OVC043
{-SN} % 30.25
KDSM 082030Z AUTO 07007KT 3SM -SN BKN019 BKN026 OVC043 M06/M08 A3025 RMK T10601080 MADISHF
2:25 PMENE 93 BKN019
BKN026
OVC043
{-SN} % 30.25
KDSM 082025Z AUTO 07008KT 3SM -SN BKN019 BKN026 OVC043 M06/M08 A3025 RMK T10601080 MADISHF
2:20 PMNE 123 BKN022
BKN030
OVC045
{-SN} % 30.26
KDSM 082020Z AUTO 05010KT 3SM -SN BKN022 BKN030 OVC045 M06/M08 A3026 RMK T10601080 MADISHF
2:15 PMENE 93 BKN022
BKN026
OVC030
{-SN} % 30.27
KDSM 082015Z AUTO 06008KT 3SM -SN BKN022 BKN026 OVC030 M06/M08 A3027 RMK T10601080 MADISHF
2:14 PMENE 92 BKN022
OVC030
{-SN}221712 81% 30.270.0001
KDSM 082014Z 06008KT 2SM -SN BKN022 OVC030 M06/M08 A3027 RMK AO2 SFC VIS 3 P0000 T10561083
2:10 PMENE 83 BKN019
BKN025
OVC030
{-SN} % 30.26
KDSM 082010Z AUTO 07007KT 3SM -SN BKN019 BKN025 OVC030 M06/M08 A3026 RMK T10601080 MADISHF
2:05 PMENE 91.75 BKN019
OVC030
{-SN} % 30.27
KDSM 082005Z AUTO 06008KT 2SM -SN BKN019 OVC030 M06/M08 A3027 RMK T10601080 MADISHF
2:00 PMENE 91.25 BKN019
OVC028
{-SN} % 30.27
KDSM 082000Z AUTO 07008KT 1 1/2SM -SN BKN019 OVC028 M06/M08 A3027 RMK T10601080 MADISHF
1:55 PMENE 71 VV 019
{-SN} % 30.28
KDSM 081955Z AUTO 07006KT 1SM -SN VV019 M06/M09 A3028 RMK T10601090 MADISHF
1:54 PMNE 70.75 OVC020
{-SN}221613 78% 30.2810270.0001
KDSM 081954Z 05006KT 3/4SM R31/4500VP6000FT -SN OVC020 M06/M09 A3028 RMK AO2 SFC VIS 1 1/2 SLP270 P0000 T10561089
1:50 PMNE 81 VV 019
{-SN} % 30.28
KDSM 081950Z AUTO 05007KT 1SM -SN VV019 M06/M09 A3028 RMK T10601090 MADISHF
1:45 PMNE 80.75 BKN021
OVC041
{-SN} % 30.29
KDSM 081945Z AUTO 04007KT 1SM -SN BKN021 OVC041 M06/M09 A3029 RMK T10601090 MADISHF
1:40 PMNE 70.75 BKN023
BKN032
OVC050
{-SN} % 30.29
KDSM 081940Z AUTO 05006KT 1SM -SN BKN023 BKN032 OVC050 M06/M09 A3029 RMK T10601090 MADISHF
1:39 PMNE 60.75 BKN023
BKN032
OVC050
{-SN}221514 75% 30.290.0001
KDSM 081939Z 04005KT 3/4SM R31/4000VP6000FT -SN BKN023 BKN032 OVC050 M06/M09 A3029 RMK AO2 TWR VIS 2 P0000 T10561094
1:35 PMENE 72 BKN027
BKN039
OVC070
{-SN} % 30.29
KDSM 081935Z AUTO 06006KT 2SM -SN BKN027 BKN039 OVC070 M06/M09 A3029 RMK T10601090 MADISHF
1:34 PMENE 72 BKN027
BKN039
OVC070
{-SN}221513 75% 30.290.0001
KDSM 081934Z 07006KT 2SM -SN BKN027 BKN039 OVC070 M06/M09 A3029 RMK AO2 P0000 T10561094
1:30 PMNE 66 SCT033
BKN041
OVC070
{-SN} % 30.3
KDSM 081930Z AUTO 05005KT 6SM -SN SCT033 BKN041 OVC070 M05/M09 A3030 RMK T10501090 MADISHF
1:25 PMNE 67 BKN038
BKN050
OVC070
{-SN} % 30.3
KDSM 081925Z AUTO 05005KT 7SM -SN BKN038 BKN050 OVC070 M05/M09 A3030 RMK T10501090 MADISHF
1:20 PMENE 66 FEW033
BKN041
OVC070
{-SN} % 30.31
KDSM 081920Z AUTO 06005KT 6SM -SN FEW033 BKN041 OVC070 M05/M09 A3031 RMK T10501090 MADISHF
1:15 PMNE 76 SCT030
BKN041
OVC070
{-SN} % 30.31
KDSM 081915Z AUTO 04006KT 6SM -SN SCT030 BKN041 OVC070 M05/M09 A3031 RMK T10501090 MADISHF
1:10 PMNE 85 SCT028
BKN036
OVC075
{-SN} % 30.31
KDSM 081910Z AUTO 05007KT 5SM -SN SCT028 BKN036 OVC075 M05/M10 A3031 RMK T10501100 MADISHF
1:05 PMNNE 76 SCT028
BKN036
OVC075
{-SN} % 30.31
KDSM 081905Z AUTO 03006KT 6SM -SN SCT028 BKN036 OVC075 M05/M10 A3031 RMK T10501100 MADISHF
1:00 PMNNE 66 BKN030
BKN036
OVC075
{-SN} % 30.31
KDSM 081900Z AUTO 03005KT 6SM -SN BKN030 BKN036 OVC075 M05/M09 A3031 RMK T10501090 MADISHF
12:55 PMENE 57 OVC033
{-SN} % 30.32
KDSM 081855Z AUTO 07004KT 7SM -SN OVC033 M05/M10 A3032 RMK T10501100 MADISHF
12:54 PMENE 56 OVC033
{-SN}231417 68% 30.321028.30.0001
KDSM 081854Z 07004KT 6SM -SN OVC033 M05/M10 A3032 RMK AO2 SNB31 SLP283 P0000 T10501100
12:50 PMENE 76 BKN033
OVC065
{-SN} % 30.32
KDSM 081850Z AUTO 06006KT 6SM -SN BKN033 OVC065 M05/M10 A3032 RMK T10501100 MADISHF
12:45 PMENE 67 BKN033
OVC047
{-SN} % 30.32
KDSM 081845Z AUTO 06005KT 7SM -SN BKN033 OVC047 M05/M10 A3032 RMK T10501100 MADISHF
12:40 PMENE 87 BKN035
BKN049
OVC060
{-SN} % 30.31
KDSM 081840Z AUTO 07007KT 7SM -SN BKN035 BKN049 OVC060 M05/M10 A3031 RMK T10501100 MADISHF
12:35 PMNE 98 BKN038
BKN048
OVC055
{-SN} % 30.31
KDSM 081835Z AUTO 05008KT 8SM -SN BKN038 BKN048 OVC055 M05/M10 A3031 RMK T10501100 MADISHF
12:30 PMENE 88 FEW033
BKN044
OVC055
% 30.31
KDSM 081830Z AUTO 07007KT 8SM FEW033 BKN044 OVC055 M05/M10 A3031 RMK T10501100 MADISHF
12:25 PMENE 79 BKN046
OVC055
% 30.32
KDSM 081825Z AUTO 06006KT 9SM BKN046 OVC055 M05/M10 A3032 RMK T10501100 MADISHF
12:20 PMNE 910 BKN048
OVC060
% 30.31
KDSM 081820Z AUTO 04008KT 10SM BKN048 OVC060 M05/M11 A3031 RMK T10501110 MADISHF
12:15 PMENE 109 OVC048
% 30.31
KDSM 081815Z AUTO 07009KT 9SM OVC048 M05/M10 A3031 RMK T10501100 MADISHF
12:10 PMENE 99 BKN048
OVC060
% 30.31
KDSM 081810Z AUTO 06008KT 9SM BKN048 OVC060 M04/M10 A3031 RMK T10401100 MADISHF
12:05 PMNE 99 FEW019
BKN048
OVC060
% 30.31
KDSM 081805Z AUTO 05008KT 9SM FEW019 BKN048 OVC060 M05/M10 A3031 RMK T10501100 MADISHF
12:00 PMENE 1210 FEW019
SCT047
OVC055
% 30.32
KDSM 081800Z AUTO 06010KT 10SM FEW019 SCT047 OVC055 M04/M10 A3032 RMK T10401100 MADISHF
11:55 AMNE 910 FEW019
OVC055
% 30.32
KDSM 081755Z AUTO 05008KT 10SM FEW019 OVC055 M05/M10 A3032 RMK T10501100 MADISHF
11:54 AMNE 910 FEW020
OVC055
231413 24 16 68% 30.331028.60
KDSM 081754Z 05008KT 10SM FEW020 OVC055 M05/M10 A3033 RMK AO2 SLP286 4/005 933005 T10501100 11044 21089 58007
11:50 AMENE 810 SCT019
BKN048
OVC060
% 30.34
KDSM 081750Z AUTO 06007KT 10SM SCT019 BKN048 OVC060 M04/M10 A3034 RMK T10401100 4/005 933005 MADISHF
11:45 AMENE 710 BKN019
OVC060
% 30.34
KDSM 081745Z AUTO 06006KT 10SM BKN019 OVC060 M05/M10 A3034 RMK T10501100 MADISHF
11:40 AMNE 710 BKN019
OVC065
% 30.35
KDSM 081740Z AUTO 05006KT 10SM BKN019 OVC065 M04/M10 A3035 RMK T10401100 MADISHF
11:35 AMNNE 610 BKN019
OVC065
% 30.35
KDSM 081735Z AUTO 03005KT 10SM BKN019 OVC065 M04/M10 A3035 RMK T10401100 MADISHF
11:30 AMNE 510 BKN019
BKN065
OVC085
% 30.35
KDSM 081730Z AUTO 05004KT 10SM BKN019 BKN065 OVC085 M04/M10 A3035 RMK T10401100 MADISHF
11:25 AMNE 610 BKN019
OVC085
% 30.34
KDSM 081725Z AUTO 04005KT 10SM BKN019 OVC085 M05/M09 A3034 RMK T10501090 MADISHF
11:20 AMENE 610 BKN019
OVC085
% 30.35
KDSM 081720Z AUTO 07005KT 10SM BKN019 OVC085 M05/M10 A3035 RMK T10501100 MADISHF
11:15 AMNE 510 BKN019
OVC085
% 30.36
KDSM 081715Z AUTO 04004KT 10SM BKN019 OVC085 M05/M10 A3036 RMK T10501100 MADISHF
11:10 AMN 010 BKN019
OVC085
% 30.36
KDSM 081710Z AUTO 00000KT 10SM BKN019 OVC085 M05/M10 A3036 RMK T10501100 MADISHF
11:05 AMNE 610 BKN019
OVC085
% 30.36
KDSM 081705Z AUTO 05005KT 10SM BKN019 OVC085 M05/M10 A3036 RMK T10501100 MADISHF
11:00 AMENE 510 BKN019
OVC090
% 30.35
KDSM 081700Z AUTO 06004KT 10SM BKN019 OVC090 M05/M10 A3035 RMK T10501100 MADISHF
10:55 AMNE 510 BKN021
OVC110
% 30.36
KDSM 081655Z AUTO 05004KT 10SM BKN021 OVC110 M06/M10 A3036 RMK T10601100 MADISHF
10:54 AMNE 510 OVC021
221416 71% 30.361029.70
KDSM 081654Z 05004KT 10SM OVC021 M06/M10 A3036 RMK AO2 SLP297 T10561100
10:50 AMENE 510 OVC021
% 30.35
KDSM 081650Z AUTO 06004KT 10SM OVC021 M06/M10 A3035 RMK T10601100 MADISHF
10:45 AMN 09 OVC021
% 30.36
KDSM 081645Z AUTO 00000KT 9SM OVC021 M06/M09 A3036 RMK T10601090 MADISHF
10:40 AMN 010 OVC021
% 30.37
KDSM 081640Z AUTO 00000KT 10SM OVC021 M06/M09 A3037 RMK T10601090 MADISHF
10:35 AMN 010 OVC021
% 30.37
KDSM 081635Z AUTO 00000KT 10SM OVC021 M07/M09 A3037 RMK T10701090 MADISHF
10:30 AMN 010 OVC021
% 30.37
KDSM 081630Z AUTO 00000KT 10SM OVC021 M07/M09 A3037 RMK T10701090 MADISHF
10:25 AMN 09 OVC021
% 30.37
KDSM 081625Z AUTO 00000KT 9SM OVC021 M07/M09 A3037 RMK T10701090 MADISHF
10:20 AMN 09 OVC021
% 30.37
KDSM 081620Z AUTO 00000KT 9SM OVC021 M07/M09 A3037 RMK T10701090 MADISHF
10:15 AMSE 310 OVC021
% 30.36
KDSM 081615Z AUTO 13003KT 10SM OVC021 M07/M10 A3036 RMK T10701100 MADISHF
10:10 AMSE 510 OVC021
% 30.35
KDSM 081610Z AUTO 13004KT 10SM OVC021 M07/M10 A3035 RMK T10701100 MADISHF
10:05 AMESE 510 OVC021
% 30.35
KDSM 081605Z AUTO 11004KT 10SM OVC021 M07/M11 A3035 RMK T10701110 MADISHF
10:00 AME 710 OVC021
% 30.35
KDSM 081600Z AUTO 10006KT 10SM OVC021 M07/M11 A3035 RMK T10701110 MADISHF
9:55 AME 610 OVC022
% 30.35
KDSM 081555Z AUTO 09005KT 10SM OVC022 M07/M11 A3035 RMK T10701110 MADISHF
9:54 AME 610 OVC022
201312 74% 30.351029.40
KDSM 081554Z 09005KT 10SM OVC022 M07/M11 A3035 RMK AO2 SLP294 T10671106
9:50 AME 710 OVC022
% 30.35
KDSM 081550Z AUTO 09006KT 10SM OVC022 M07/M11 A3035 RMK T10701110 MADISHF
9:45 AME 69 OVC022
% 30.35
KDSM 081545Z AUTO 09005KT 9SM OVC022 M07/M11 A3035 RMK T10701110 MADISHF
9:40 AME 69 OVC022
% 30.36
KDSM 081540Z AUTO 09005KT 9SM OVC022 M07/M11 A3036 RMK T10701110 MADISHF
9:35 AME 59 OVC022
% 30.35
KDSM 081535Z AUTO 10004KT 9SM OVC022 M07/M11 A3035 RMK T10701110 MADISHF
9:30 AME 69 OVC023
% 30.35
KDSM 081530Z AUTO 08005KT 9SM OVC023 M07/M11 A3035 RMK T10701110 MADISHF
9:25 AMNE 59 OVC023
% 30.36
KDSM 081525Z AUTO 05004KT 9SM OVC023 M07/M11 A3036 RMK T10701110 MADISHF
9:20 AMENE 59 OVC023
% 30.36
KDSM 081520Z AUTO 07004KT 9SM OVC023 M08/M11 A3036 RMK T10801110 MADISHF
9:15 AMENE 59 OVC023
% 30.36
KDSM 081515Z AUTO 07004KT 9SM OVC023 M08/M11 A3036 RMK T10801110 MADISHF
9:10 AMENE 59 OVC023
% 30.36
KDSM 081510Z AUTO 07004KT 9SM OVC023 M08/M11 A3036 RMK T10801110 MADISHF
9:05 AME 59 OVC023
% 30.36
KDSM 081505Z AUTO 08004KT 9SM OVC023 M08/M11 A3036 RMK T10801110 MADISHF
9:00 AME 59 OVC024
% 30.36
KDSM 081500Z AUTO 09004KT 9SM OVC024 M08/M11 A3036 RMK T10801110 MADISHF
8:55 AMESE 69 OVC024
% 30.37
KDSM 081455Z AUTO 11005KT 9SM OVC024 M08/M11 A3037 RMK T10801110 MADISHF
8:54 AMESE 69 OVC024
17129 80% 30.371030.10
KDSM 081454Z 11005KT 9SM OVC024 M08/M11 A3037 RMK AO2 SLP301 T10831111 52002
8:50 AMESE 59 OVC024
% 30.37
KDSM 081450Z AUTO 11004KT 9SM OVC024 M08/M11 A3037 RMK T10801110 MADISHF
8:45 AME 68 OVC024
% 30.37
KDSM 081445Z AUTO 08005KT 8SM OVC024 M08/M11 A3037 RMK T10801110 MADISHF
8:40 AME 58 OVC026
% 30.37
KDSM 081440Z AUTO 09004KT 8SM OVC026 M08/M11 A3037 RMK T10801110 MADISHF
8:35 AME 68 OVC026
% 30.36
KDSM 081435Z AUTO 09005KT 8SM OVC026 M08/M11 A3036 RMK T10801110 MADISHF
8:30 AME 69 OVC026
% 30.36
KDSM 081430Z AUTO 09005KT 9SM OVC026 M08/M11 A3036 RMK T10801110 MADISHF
8:25 AME 79 OVC026
% 30.36
KDSM 081425Z AUTO 08006KT 9SM OVC026 M08/M11 A3036 RMK T10801110 MADISHF
8:20 AME 69 OVC025
% 30.36
KDSM 081420Z AUTO 08005KT 9SM OVC025 M08/M11 A3036 RMK T10801110 MADISHF
8:15 AMENE 69 OVC025
% 30.36
KDSM 081415Z AUTO 07005KT 9SM OVC025 M08/M11 A3036 RMK T10801110 MADISHF
8:10 AMENE 79 OVC025
% 30.37
KDSM 081410Z AUTO 07006KT 9SM OVC025 M09/M11 A3037 RMK T10901110 MADISHF
8:05 AME 69 OVC027
% 30.37
KDSM 081405Z AUTO 08005KT 9SM OVC027 M09/M11 A3037 RMK T10901110 MADISHF
8:00 AMENE 69 OVC027
% 30.36
KDSM 081400Z AUTO 07005KT 9SM OVC027 M09/M11 A3036 RMK T10901110 MADISHF
7:55 AMENE 69 OVC027
% 30.36
KDSM 081355Z AUTO 07005KT 9SM OVC027 M09/M12 A3036 RMK T10901120 MADISHF
7:54 AMENE 69 OVC027
16117 80% 30.3610300
KDSM 081354Z 07005KT 9SM OVC027 M09/M12 A3036 RMK AO2 SLP300 T10891117
7:50 AMENE 69 OVC027
% 30.36
KDSM 081350Z AUTO 07005KT 9SM OVC027 M09/M12 A3036 RMK T10901120 MADISHF
7:46 AMENE 79 OVC027
16126 84% 30.360
KDSM 081346Z 07006KT 9SM OVC027 M09/M11 A3036 RMK AO2 T10891111
7:45 AMENE 69 OVC027
% 30.36
KDSM 081345Z AUTO 07005KT 9SM OVC027 M09/M11 A3036 RMK T10901110 MADISHF
7:40 AME 59 OVC027
% 30.36
KDSM 081340Z AUTO 08004KT 9SM OVC027 M09/M11 A3036 RMK T10901110 MADISHF
7:35 AMENE 69 OVC031
% 30.36
KDSM 081335Z AUTO 06005KT 9SM OVC031 M09/M12 A3036 RMK T10901120 MADISHF
7:30 AME 69 OVC030
% 30.36
KDSM 081330Z AUTO 09005KT 9SM OVC030 M08/M11 A3036 RMK T10801110 MADISHF
7:25 AMENE 610 OVC030
% 30.36
KDSM 081325Z AUTO 07005KT 10SM OVC030 M09/M12 A3036 RMK T10901120 MADISHF
7:20 AMENE 610 OVC030
% 30.36
KDSM 081320Z AUTO 06005KT 10SM OVC030 M09/M12 A3036 RMK T10901120 MADISHF
7:15 AMENE 710 OVC030
% 30.36
KDSM 081315Z AUTO 06006KT 10SM OVC030 M09/M12 A3036 RMK T10901120 MADISHF
7:10 AMENE 610 OVC031
% 30.36
KDSM 081310Z AUTO 06005KT 10SM OVC031 M09/M11 A3036 RMK T10901110 MADISHF
7:05 AMENE 610 OVC031
% 30.36
KDSM 081305Z AUTO 07005KT 10SM OVC031 M09/M11 A3036 RMK T10901110 MADISHF
7:00 AMENE 610 OVC031
% 30.36
KDSM 081300Z AUTO 06005KT 10SM OVC031 M08/M11 A3036 RMK T10801110 MADISHF
6:55 AMENE 510 OVC031
% 30.36
KDSM 081255Z AUTO 06004KT 10SM OVC031 M09/M12 A3036 RMK T10901120 MADISHF
6:54 AMENE 510 OVC031
16119 80% 30.361029.90
KDSM 081254Z 06004KT 10SM OVC031 M09/M12 A3036 RMK AO2 SLP299 T10891117
6:50 AMENE 610 OVC031
% 30.36
KDSM 081250Z AUTO 07005KT 10SM OVC031 M09/M12 A3036 RMK T10901120 MADISHF
6:45 AMENE 610 OVC031
% 30.36
KDSM 081245Z AUTO 06005KT 10SM OVC031 M09/M12 A3036 RMK T10901120 MADISHF
6:40 AMENE 510 OVC031
% 30.36
KDSM 081240Z AUTO 06004KT 10SM OVC031 M09/M12 A3036 RMK T10901120 MADISHF
6:35 AMENE 510 OVC031
% 30.35
KDSM 081235Z AUTO 06004KT 10SM OVC031 M09/M11 A3035 RMK T10901110 MADISHF
6:30 AME 510 OVC031
% 30.35
KDSM 081230Z AUTO 09004KT 10SM OVC031 M08/M11 A3035 RMK T10801110 MADISHF
6:25 AMESE 610 OVC032
% 30.35
KDSM 081225Z AUTO 11005KT 10SM OVC032 M09/M11 A3035 RMK T10901110 MADISHF
6:20 AME 610 OVC032
% 30.34
KDSM 081220Z AUTO 10005KT 10SM OVC032 M08/M11 A3034 RMK T10801110 MADISHF
6:15 AME 710 OVC033
% 30.35
KDSM 081215Z AUTO 08006KT 10SM OVC033 M08/M11 A3035 RMK T10801110 MADISHF
6:10 AMENE 510 OVC033
% 30.35
KDSM 081210Z AUTO 07004KT 10SM OVC033 M08/M11 A3035 RMK T10801110 MADISHF
6:05 AMENE 610 OVC033
% 30.35
KDSM 081205Z AUTO 06005KT 10SM OVC033 M08/M12 A3035 RMK T10801120 MADISHF
6:00 AMENE 610 OVC033
% 30.35
KDSM 081200Z AUTO 07005KT 10SM OVC033 M08/M11 A3035 RMK T10801110 MADISHF
5:55 AMENE 610 OVC033
% 30.36
KDSM 081155Z AUTO 07005KT 10SM OVC033 M08/M11 A3036 RMK T10801110 MADISHF
5:54 AMENE 610 OVC034
17129 17 13 80% 30.361029.80
KDSM 081154Z 07005KT 10SM OVC034 M08/M11 A3036 RMK AO2 SLP298 4/005 70002 T10831111 11083 21106 53000
5:50 AMENE 610 OVC033
% 30.36
KDSM 081150Z AUTO 06005KT 10SM OVC033 M08/M11 A3036 RMK T10801110 4/005 MADISHF
5:45 AMENE 610 OVC035
% 30.36
KDSM 081145Z AUTO 06005KT 10SM OVC035 M08/M11 A3036 RMK T10801110 4/005 MADISHF
5:40 AMENE 610 OVC035
% 30.35
KDSM 081140Z AUTO 06005KT 10SM OVC035 M08/M11 A3035 RMK T10801110 4/005 MADISHF
5:35 AMENE 510 OVC035
% 30.35
KDSM 081135Z AUTO 07004KT 10SM OVC035 M08/M11 A3035 RMK T10801110 4/005 MADISHF
5:30 AME 510 OVC035
% 30.35
KDSM 081130Z AUTO 08004KT 10SM OVC035 M08/M11 A3035 RMK T10801110 4/005 MADISHF
5:25 AME 510 OVC035
% 30.35
KDSM 081125Z AUTO 09004KT 10SM OVC035 M08/M11 A3035 RMK T10801110 4/005 MADISHF
5:20 AME 510 OVC035
% 30.35
KDSM 081120Z AUTO 10004KT 10SM OVC035 M08/M11 A3035 RMK T10801110 MADISHF
5:15 AME 510 OVC035
% 30.35
KDSM 081115Z AUTO 10004KT 10SM OVC035 M08/M11 A3035 RMK T10801110 MADISHF
5:10 AME 510 OVC035
% 30.35
KDSM 081110Z AUTO 10004KT 10SM OVC035 M08/M11 A3035 RMK T10801110 MADISHF
5:05 AME 610 OVC035
% 30.34
KDSM 081105Z AUTO 09005KT 10SM OVC035 M08/M11 A3034 RMK T10801110 MADISHF
5:00 AME 510 OVC035
% 30.34
KDSM 081100Z AUTO 10004KT 10SM OVC035 M08/M11 A3034 RMK T10801110 MADISHF
4:55 AME 510 OVC035
% 30.34
KDSM 081055Z AUTO 10004KT 10SM OVC035 M08/M11 A3034 RMK T10801110 MADISHF
4:54 AMESE 310 OVC035
171212 80% 30.341029.20
KDSM 081054Z 11003KT 10SM OVC035 M08/M11 A3034 RMK AO2 SLP292 T10831111
4:50 AMESE 510 OVC035
% 30.34
KDSM 081050Z AUTO 12004KT 10SM OVC035 M08/M11 A3034 RMK T10801110 MADISHF
4:45 AMESE 610 OVC035
% 30.34
KDSM 081045Z AUTO 12005KT 10SM OVC035 M08/M12 A3034 RMK T10801120 MADISHF
4:40 AMSE 610 OVC035
% 30.34
KDSM 081040Z AUTO 13005KT 10SM OVC035 M09/M11 A3034 RMK T10901110 MADISHF
4:35 AMSE 710 OVC035
% 30.34
KDSM 081035Z AUTO 14006KT 10SM OVC035 M09/M12 A3034 RMK T10901120 MADISHF
4:30 AMSE 710 OVC036
% 30.34
KDSM 081030Z AUTO 13006KT 10SM OVC036 M08/M12 A3034 RMK T10801120 MADISHF
4:25 AMESE 510 OVC036
% 30.34
KDSM 081025Z AUTO 12004KT 10SM OVC036 M09/M12 A3034 RMK T10901120 MADISHF
4:20 AMESE 510 OVC036
% 30.34
KDSM 081020Z AUTO 12004KT 10SM OVC036 M08/M12 A3034 RMK T10801120 MADISHF
4:15 AMESE 510 OVC036
% 30.34
KDSM 081015Z AUTO 11004KT 10SM OVC036 M08/M12 A3034 RMK T10801120 MADISHF
4:10 AMESE 510 OVC036
% 30.35
KDSM 081010Z AUTO 11004KT 10SM OVC036 M08/M12 A3035 RMK T10801120 MADISHF
4:05 AME 510 OVC036
% 30.35
KDSM 081005Z AUTO 10004KT 10SM OVC036 M08/M11 A3035 RMK T10801110 MADISHF
4:00 AMESE 310 OVC036
% 30.36
KDSM 081000Z AUTO 12003KT 10SM OVC036 M09/M11 A3036 RMK T10901110 MADISHF
3:55 AMSE 510 OVC036
% 30.36
KDSM 080955Z AUTO 13004KT 10SM OVC036 M09/M11 A3036 RMK T10901110 MADISHF
3:54 AMESE 510 OVC036
16129 84% 30.361029.80
KDSM 080954Z 12004KT 10SM OVC036 M09/M11 A3036 RMK AO2 SLP298 T10891111
3:50 AMESE 310 OVC036
% 30.36
KDSM 080950Z AUTO 12003KT 10SM OVC036 M09/M11 A3036 RMK T10901110 MADISHF
3:45 AMSE 610 OVC036
% 30.35
KDSM 080945Z AUTO 14005KT 10SM OVC036 M09/M12 A3035 RMK T10901120 MADISHF
3:40 AMSSE 710 OVC036
% 30.34
KDSM 080940Z AUTO 15006KT 10SM OVC036 M09/M12 A3034 RMK T10901120 MADISHF
3:35 AMSE 710 OVC036
% 30.34
KDSM 080935Z AUTO 14006KT 10SM OVC036 M09/M12 A3034 RMK T10901120 MADISHF
3:30 AMSE 710 OVC035
% 30.34
KDSM 080930Z AUTO 14006KT 10SM OVC035 M09/M12 A3034 RMK T10901120 MADISHF
3:25 AMSSE 710 OVC035
% 30.35
KDSM 080925Z AUTO 15006KT 10SM OVC035 M09/M12 A3035 RMK T10901120 MADISHF
3:20 AMSE 810 OVC035
% 30.35
KDSM 080920Z AUTO 14007KT 10SM OVC035 M09/M12 A3035 RMK T10901120 MADISHF
3:15 AMSE 710 OVC036
% 30.35
KDSM 080915Z AUTO 14006KT 10SM OVC036 M09/M12 A3035 RMK T10901120 MADISHF
3:10 AMSE 810 OVC036
% 30.35
KDSM 080910Z AUTO 14007KT 10SM OVC036 M09/M12 A3035 RMK T10901120 MADISHF
3:05 AMSE 810 OVC036
% 30.35
KDSM 080905Z AUTO 14007KT 10SM OVC036 M09/M12 A3035 RMK T10901120 MADISHF
3:00 AMSE 710 OVC036
% 30.35
KDSM 080900Z AUTO 14006KT 10SM OVC036 M09/M12 A3035 RMK T10901120 MADISHF
2:55 AMSE 710 OVC037
% 30.36
KDSM 080855Z AUTO 14006KT 10SM OVC037 M09/M12 A3036 RMK T10901120 MADISHF
2:54 AMSE 710 OVC037
15115 83% 30.361029.80
KDSM 080854Z 14006KT 10SM OVC037 M09/M12 A3036 RMK AO2 SLP298 T10941117 56015
2:50 AMSE 710 OVC037
% 30.36
KDSM 080850Z AUTO 14006KT 10SM OVC037 M09/M12 A3036 RMK T10901120 MADISHF
2:45 AMSSE 710 OVC037
% 30.37
KDSM 080845Z AUTO 15006KT 10SM OVC037 M09/M12 A3037 RMK T10901120 MADISHF
2:40 AMSE 710 OVC037
% 30.37
KDSM 080840Z AUTO 14006KT 10SM OVC037 M09/M12 A3037 RMK T10901120 MADISHF
2:35 AMSE 610 OVC037
% 30.37
KDSM 080835Z AUTO 14005KT 10SM OVC037 M09/M12 A3037 RMK T10901120 MADISHF
2:30 AMSE 610 OVC037
% 30.38
KDSM 080830Z AUTO 14005KT 10SM OVC037 M09/M12 A3038 RMK T10901120 MADISHF
2:25 AMSE 610 OVC038
% 30.37
KDSM 080825Z AUTO 14005KT 10SM OVC038 M09/M12 A3037 RMK T10901120 MADISHF
2:20 AMSE 710 OVC038
% 30.37
KDSM 080820Z AUTO 14006KT 10SM OVC038 M09/M12 A3037 RMK T10901120 MADISHF
2:15 AMSSE 710 OVC038
% 30.37
KDSM 080815Z AUTO 15006KT 10SM OVC038 M09/M12 A3037 RMK T10901120 MADISHF
2:10 AMSE 710 OVC038
% 30.37
KDSM 080810Z AUTO 14006KT 10SM OVC038 M09/M12 A3037 RMK T10901120 MADISHF
2:05 AMSE 710 OVC039
% 30.37
KDSM 080805Z AUTO 14006KT 10SM OVC039 M09/M12 A3037 RMK T10901120 MADISHF
2:00 AMSSE 910 OVC039
% 30.37
KDSM 080800Z AUTO 15008KT 10SM OVC039 M10/M12 A3037 RMK T11001120 MADISHF
1:55 AMSSE 99 OVC039
% 30.36
KDSM 080755Z AUTO 15008KT 9SM OVC039 M10/M12 A3036 RMK T11001120 MADISHF
1:54 AMSSE 89 OVC040
14103 84% 30.3610300
KDSM 080754Z 15007KT 9SM OVC040 M10/M12 A3036 RMK AO2 SLP300 T11001122
1:50 AMSSE 89 OVC039
% 30.37
KDSM 080750Z AUTO 15007KT 9SM OVC039 M10/M12 A3037 RMK T11001120 MADISHF
1:45 AMSSE 89 OVC043
% 30.37
KDSM 080745Z AUTO 15007KT 9SM OVC043 M10/M12 A3037 RMK T11001120 MADISHF
1:40 AMSSE 99 OVC043
% 30.37
KDSM 080740Z AUTO 15008KT 9SM OVC043 M10/M12 A3037 RMK T11001120 MADISHF
1:35 AMSSE 99 OVC046
% 30.37
KDSM 080735Z AUTO 15008KT 9SM OVC046 M10/M12 A3037 RMK T11001120 MADISHF
1:30 AMSSE 910 OVC048
% 30.37
KDSM 080730Z AUTO 15008KT 10SM OVC048 M10/M12 A3037 RMK T11001120 MADISHF
1:25 AMSSE 89 OVC050
% 30.38
KDSM 080725Z AUTO 15007KT 9SM OVC050 M10/M12 A3038 RMK T11001120 MADISHF
1:20 AMSSE 89 OVC050
% 30.37
KDSM 080720Z AUTO 15007KT 9SM OVC050 M10/M12 A3037 RMK T11001120 MADISHF
1:15 AMSSE 88 OVC050
% 30.37
KDSM 080715Z AUTO 15007KT 8SM OVC050 M10/M12 A3037 RMK T11001120 MADISHF
1:10 AMSE 87 OVC050
% 30.37
KDSM 080710Z AUTO 14007KT 7SM OVC050 M10/M12 A3037 RMK T11001120 MADISHF
1:05 AMSE 87 OVC050
% 30.36
KDSM 080705Z AUTO 14007KT 7SM OVC050 M10/M12 A3036 RMK T11001120 MADISHF
1:00 AMSE 99 OVC050
% 30.37
KDSM 080700Z AUTO 14008KT 9SM OVC050 M10/M12 A3037 RMK T11001120 MADISHF
12:55 AMSE 89 OVC050
% 30.37
KDSM 080655Z AUTO 14007KT 9SM OVC050 M11/M12 A3037 RMK T11101120 MADISHF
12:54 AMSE 810 OVC050
13102 88% 30.371030.10
KDSM 080654Z 14007KT 10SM OVC050 M11/M12 A3037 RMK AO2 PRESFR SLP301 T11061122
12:50 AMSE 910 OVC050
% 30.37
KDSM 080650Z AUTO 14008KT 10SM OVC050 M11/M13 A3037 RMK T11101130 MADISHF
12:45 AMSSE 810 OVC055
% 30.38
KDSM 080645Z AUTO 15007KT 10SM OVC055 M11/M13 A3038 RMK T11101130 MADISHF
12:40 AMSSE 910 OVC060
% 30.38
KDSM 080640Z AUTO 15008KT 10SM OVC060 M11/M13 A3038 RMK T11101130 MADISHF
12:35 AMSSE 810 OVC060
% 30.39
KDSM 080635Z AUTO 15007KT 10SM OVC060 M11/M13 A3039 RMK T11101130 MADISHF
12:30 AMSE 89 OVC060
% 30.39
KDSM 080630Z AUTO 14007KT 9SM OVC060 M11/M13 A3039 RMK T11101130 MADISHF
12:25 AMSE 79 OVC060
% 30.4
KDSM 080625Z AUTO 14006KT 9SM OVC060 M11/M13 A3040 RMK T11101130 MADISHF
12:20 AMSSE 69 OVC060
% 30.4
KDSM 080620Z AUTO 15005KT 9SM OVC060 M11/M13 A3040 RMK T11101130 MADISHF
12:15 AMSSE 68 OVC060
% 30.4
KDSM 080615Z AUTO 15005KT 8SM OVC060 M11/M13 A3040 RMK T11101130 MADISHF
12:10 AMSSE 58 OVC060
% 30.41
KDSM 080610Z AUTO 15004KT 8SM OVC060 M11/M13 A3041 RMK T11101130 MADISHF
12:05 AMSSE 68 OVC060
% 30.41
KDSM 080605Z AUTO 16005KT 8SM OVC060 M11/M13 A3041 RMK T11101130 MADISHF
12:00 AMSSE 69 OVC060
% 30.41
KDSM 080600Z AUTO 15005KT 9SM OVC060 M11/M13 A3041 RMK T11101130 MADISHF

Data Notes